.
WxDataArchive / Data Records for 2008-08-31
2008-08-30 August 2008 2008-09-01

Data Records for Sunday, 31 August 2008

Time	Temp	Chill	HIndex	Humid	Dewpt	 Wind 	HiWind	WindDir	Rain 	Barom 
-----	----	-----	------	-----	-----	------	------	-------	-----	----- 
00:00	65.0	65.0	65.0	63	52.1	0	0	---	0.00	30.073 
00:05	64.7	64.7	64.7	65	52.7	0	0	---	0.00	30.073 
00:10	64.5	64.5	64.5	65	52.5	0	0	---	0.00	30.073 
00:15	64.2	64.2	64.2	66	52.6	0	0	---	0.00	30.073 
00:20	63.9	63.9	63.9	67	52.7	0	0	---	0.00	30.073 
00:25	63.7	63.7	63.7	68	52.9	0	0	---	0.00	30.073 
00:30	63.4	63.4	63.4	68	52.6	0	0	---	0.00	30.074 
00:35	63.2	63.2	63.2	69	52.9	0	0	---	0.00	30.074 
00:40	63.1	63.1	63.1	69	52.8	0	0	---	0.00	30.074 
00:45	62.7	62.7	62.7	70	52.8	0	0	---	0.00	30.077 
00:50	62.6	62.6	62.6	70	52.7	0	0	---	0.00	30.077 
00:55	62.4	62.4	62.4	71	52.9	0	0	---	0.00	30.077 
01:00	62.3	62.3	62.3	71	52.8	0	0	---	0.00	30.082 
01:05	62.0	62.0	62.0	72	52.9	0	0	---	0.00	30.082 
01:10	61.8	61.8	61.8	73	53.0	0	0	---	0.00	30.082 
01:15	61.6	61.6	61.6	73	52.9	0	0	---	0.00	30.079 
01:20	61.5	61.5	61.5	74	53.1	0	0	---	0.00	30.079 
01:25	61.3	61.3	61.3	75	53.3	0	0	---	0.00	30.079 
01:30	61.2	61.2	61.2	75	53.2	0	0	---	0.00	30.079 
01:35	61.0	61.0	61.0	75	53.0	0	0	---	0.00	30.079 
01:40	60.7	60.7	60.7	77	53.4	0	0	---	0.00	30.079 
01:45	60.5	60.5	60.5	77	53.2	0	0	---	0.00	30.079 
01:50	60.4	60.4	60.4	78	53.5	0	0	---	0.00	30.079 
01:55	60.2	60.2	60.2	79	53.7	0	0	---	0.00	30.079 
02:00	59.9	59.9	59.9	79	53.4	0	0	---	0.00	30.084 
02:05	59.8	59.8	59.8	80	53.6	0	0	---	0.00	30.084 
02:10	59.6	59.6	59.6	80	53.4	0	0	---	0.00	30.084 
02:15	59.5	59.5	59.5	81	53.7	0	0	---	0.00	30.088 
02:20	59.3	59.3	59.3	82	53.8	0	0	---	0.00	30.088 
02:25	59.2	59.2	59.2	82	53.7	0	0	---	0.00	30.088 
02:30	59.0	59.0	59.0	82	53.5	0	0	---	0.00	30.092 
02:35	58.9	58.9	58.9	83	53.7	0	0	---	0.00	30.092 
02:40	58.9	58.9	58.9	83	53.7	0	0	---	0.00	30.092 
02:45	58.7	58.7	58.7	84	53.9	0	0	---	0.00	30.095 
02:50	58.6	58.6	58.6	84	53.8	0	0	---	0.00	30.095 
02:55	58.4	58.4	58.4	85	53.9	0	0	---	0.00	30.095 
03:00	58.4	58.4	58.4	86	54.2	0	0	---	0.00	30.097 
03:05	58.3	58.3	58.3	86	54.1	0	0	---	0.00	30.097 
03:10	58.1	58.1	58.1	87	54.2	0	0	---	0.00	30.097 
03:15	58.1	58.1	58.1	87	54.2	0	0	---	0.00	30.098 
03:20	58.0	58.0	58.0	88	54.5	0	0	---	0.00	30.098 
03:25	58.0	58.0	58.0	88	54.5	0	0	---	0.00	30.098 
03:30	57.8	57.8	57.8	88	54.3	0	0	---	0.00	30.105 
03:35	57.6	57.6	57.6	88	54.1	0	0	---	0.00	30.105 
03:40	57.6	57.6	57.6	88	54.1	0	0	---	0.00	30.105 
03:45	57.5	57.5	57.5	89	54.3	0	0	---	0.00	30.105 
03:50	57.5	57.5	57.5	89	54.3	0	0	---	0.00	30.105 
03:55	57.3	57.3	57.3	89	54.1	0	0	---	0.00	30.105 
04:00	57.3	57.3	57.3	89	54.1	0	0	---	0.00	30.107 
04:05	57.2	57.2	57.2	89	54.0	0	0	---	0.00	30.107 
04:10	57.0	57.0	57.0	89	53.8	0	0	---	0.00	30.107 
04:15	57.0	57.0	57.0	89	53.8	0	0	---	0.00	30.110 
04:20	57.0	57.0	57.0	90	54.1	0	0	---	0.00	30.110 
04:25	57.0	57.0	57.0	91	54.4	0	0	---	0.00	30.110 
04:30	57.0	57.0	57.0	91	54.4	0	0	---	0.00	30.112 
04:35	57.0	57.0	57.0	91	54.4	0	0	---	0.00	30.112 
04:40	57.0	57.0	57.0	92	54.7	0	0	---	0.00	30.112 
04:45	57.0	57.0	57.0	92	54.7	0	0	---	0.00	30.115 
04:50	56.9	56.9	56.9	92	54.6	0	0	---	0.00	30.115 
04:55	56.9	56.9	56.9	92	54.6	0	0	---	0.00	30.115 
05:00	56.9	56.9	56.9	92	54.6	0	0	---	0.00	30.115 
05:05	56.7	56.7	56.7	92	54.4	0	0	---	0.00	30.115 
05:10	56.6	56.6	56.6	92	54.3	0	0	---	0.00	30.115 
05:15	56.6	56.6	56.6	92	54.3	0	0	---	0.00	30.123 
05:20	56.5	56.5	56.5	92	54.2	0	0	---	0.00	30.123 
05:25	56.5	56.5	56.5	93	54.5	0	0	---	0.00	30.123 
05:30	56.3	56.3	56.3	93	54.3	0	0	---	0.00	30.124 
05:35	56.3	56.3	56.3	93	54.3	0	0	---	0.00	30.124 
05:40	56.3	56.3	56.3	93	54.3	0	0	---	0.00	30.124 
05:45	56.2	56.2	56.2	93	54.2	0	0	---	0.00	30.127 
05:50	56.2	56.2	56.2	93	54.2	0	0	---	0.00	30.127 
05:55	56.0	56.0	56.0	93	54.0	0	0	---	0.00	30.127 
06:00	55.9	55.9	55.9	93	53.9	0	0	---	0.00	30.129 
06:05	55.9	55.9	55.9	93	53.9	0	0	---	0.00	30.129 
06:10	55.7	55.7	55.7	93	53.7	0	0	---	0.00	30.129 
06:15	55.7	55.7	55.7	93	53.7	0	0	---	0.00	30.135 
06:20	55.7	55.7	55.7	93	53.7	0	0	---	0.00	30.135 
06:25	55.7	55.7	55.7	93	53.7	0	0	---	0.00	30.135 
06:30	55.9	55.9	55.9	94	54.2	0	0	---	0.00	30.144 
06:35	56.0	56.0	56.0	94	54.3	0	0	---	0.00	30.144 
06:40	56.2	56.2	56.2	94	54.5	0	0	---	0.00	30.144 
06:45	56.3	56.3	56.3	94	54.6	0	0	---	0.00	30.146 
06:50	56.5	56.5	56.5	94	54.8	0	0	---	0.00	30.146 
06:55	56.7	56.7	56.7	94	55.0	0	0	---	0.00	30.146 
07:00	57.2	57.2	57.2	95	55.8	0	0	---	0.00	30.149 
07:05	58.3	58.3	58.3	96	57.2	0	1	112	0.00	30.149 
07:10	59.2	59.2	59.2	95	57.8	0	1	112	0.00	30.149 
07:15	60.1	60.1	60.1	95	58.7	1	2	112	0.00	30.155 
07:20	61.0	61.0	61.0	92	58.7	1	2	112	0.00	30.155 
07:25	62.0	62.0	62.0	90	59.0	0	1	112	0.00	30.155 
07:30	62.6	62.6	62.6	87	58.7	0	2	112	0.00	30.152 
07:35	63.2	63.2	63.2	86	58.9	0	1	112	0.00	30.152 
07:40	63.9	63.9	63.9	83	58.6	1	3	112	0.00	30.152 
07:45	64.2	64.2	64.2	82	58.6	1	2	112	0.00	30.155 
07:50	64.5	64.5	64.5	81	58.5	1	4	112	0.00	30.155 
07:55	64.8	64.8	64.8	81	58.8	1	2	112	0.00	30.155 
08:00	65.0	65.0	65.0	80	58.7	1	2	112	0.00	30.159 
08:05	65.2	65.2	65.2	80	58.9	1	2	112	0.00	30.159 
08:10	65.5	65.5	65.5	81	59.5	0	2	112	0.00	30.159 
08:15	65.8	65.8	65.8	81	59.8	0	1	112	0.00	30.161 
08:20	66.1	66.1	66.1	80	59.7	0	2	112	0.00	30.161 
08:25	66.8	66.8	66.8	78	59.7	0	1	112	0.00	30.161 
08:30	67.3	67.3	67.3	78	60.2	0	1	112	0.00	30.162 
08:35	67.8	67.8	67.8	75	59.6	0	1	112	0.00	30.162 
08:40	68.4	68.4	68.4	73	59.4	0	3	112	0.00	30.162 
08:45	68.9	68.9	68.9	72	59.5	1	3	112	0.00	30.160 
08:50	69.3	69.3	69.3	72	59.9	0	2	112	0.00	30.160 
08:55	69.8	69.8	69.8	71	60.0	0	2	112	0.00	30.160 
09:00	70.3	70.3	70.3	69	59.6	0	2	112	0.00	30.160 
09:05	71.1	71.1	71.1	68	60.0	1	3	112	0.00	30.160 
09:10	72.3	72.3	72.3	65	59.9	0	2	112	0.00	30.160 
09:15	73.5	73.5	73.5	62	59.7	0	3	112	0.00	30.165 
09:20	74.6	74.6	74.6	60	59.8	0	2	112	0.00	30.165 
09:25	75.4	75.4	77.6	59	60.1	0	2	112	0.00	30.165 
09:30	76.0	76.0	78.1	57	59.6	1	3	112	0.00	30.164 
09:35	76.1	76.1	78.1	58	60.2	1	3	112	0.00	30.164 
09:40	76.5	76.5	78.4	58	60.6	0	2	90	0.00	30.164 
09:45	77.0	77.0	78.7	56	60.1	1	3	90	0.00	30.172 
09:50	77.4	77.4	79.1	57	61.0	0	2	112	0.00	30.172 
09:55	78.1	78.1	79.5	55	60.6	1	3	112	0.00	30.172 
10:00	78.6	78.6	79.9	54	60.5	2	4	112	0.00	30.170 
10:05	79.0	79.0	80.3	55	61.4	1	3	112	0.00	30.170 
10:10	79.4	79.4	80.5	53	60.8	1	3	112	0.00	30.170 
10:15	79.4	79.4	80.5	53	60.8	1	4	112	0.00	30.171 
10:20	79.6	79.6	80.7	53	60.9	1	4	112	0.00	30.171 
10:25	80.1	80.1	81.0	51	60.3	1	3	112	0.00	30.171 
10:30	80.7	80.7	81.6	51	60.9	1	5	135	0.00	30.168 
10:35	81.2	81.2	82.1	51	61.3	0	2	135	0.00	30.168 
10:40	82.0	82.0	82.8	50	61.5	1	2	135	0.00	30.168 
10:45	82.2	82.2	82.4	46	59.3	2	4	135	0.00	30.168 
10:50	82.2	82.2	82.4	46	59.3	2	4	90	0.00	30.168 
10:55	82.2	82.2	82.1	44	58.1	2	5	90	0.00	30.168 
11:00	82.2	82.2	82.3	45	58.7	2	5	90	0.00	30.166 
11:05	82.2	82.2	82.5	47	59.9	1	4	90	0.00	30.166 
11:10	82.8	82.8	83.0	46	59.9	1	4	90	0.00	30.166 
11:15	83.4	83.4	83.5	45	59.8	1	4	112	0.00	30.157 
11:20	84.1	84.1	83.9	43	59.2	1	3	112	0.00	30.157 
11:25	84.1	84.1	83.9	43	59.2	2	5	90	0.00	30.157 
11:30	84.0	84.0	83.6	42	58.4	2	6	90	0.00	30.152 
11:35	84.0	84.0	83.4	41	57.7	3	7	90	0.00	30.152 
11:40	84.0	84.0	83.1	39	56.3	2	5	112	0.00	30.152 
11:45	84.1	84.1	83.1	38	55.7	2	7	68	0.00	30.150 
11:50	84.5	84.5	83.5	38	56.1	1	3	68	0.00	30.150 
11:55	85.3	85.3	83.8	35	54.5	1	5	112	0.00	30.150 
12:00	85.5	85.5	83.8	34	53.9	2	6	90	0.00	30.146 
12:05	85.5	85.5	84.0	35	54.7	1	4	68	0.00	30.146 
12:10	86.1	86.1	84.3	33	53.6	1	6	112	0.00	30.146 
12:15	86.3	86.3	83.7	27	48.3	2	5	90	0.00	30.139 
12:20	86.7	86.7	84.3	29	50.6	1	4	90	0.00	30.139 
12:25	87.2	87.2	84.8	29	51.0	2	4	112	0.00	30.139 
12:30	87.4	87.4	84.7	27	49.3	1	4	90	0.00	30.134 
12:35	87.4	87.4	85.0	29	51.2	2	6	90	0.00	30.134 
12:40	87.2	87.2	84.5	27	49.1	2	5	112	0.00	30.134 
12:45	87.2	87.2	84.6	28	50.1	2	9	90	0.00	30.129 
12:50	87.2	87.2	84.6	28	50.1	1	9	90	0.00	30.129 
12:55	87.2	87.2	84.8	29	51.0	3	7	90	0.00	30.129 
13:00	87.2	87.2	84.5	27	49.1	3	6	90	0.00	30.127 
13:05	86.7	86.7	84.0	27	48.7	2	7	90	0.00	30.127 
13:10	87.2	87.2	84.5	27	49.1	1	4	112	0.00	30.127 
13:15	88.0	88.0	85.3	27	49.8	2	7	112	0.00	30.122 
13:20	87.8	87.8	85.1	27	49.6	2	6	112	0.00	30.122 
13:25	87.8	87.8	85.2	28	50.6	2	6	90	0.00	30.122 
13:30	88.0	88.0	85.4	28	50.8	2	5	90	0.00	30.119 
13:35	88.0	88.0	85.0	25	47.7	3	5	112	0.00	30.119 
13:40	88.2	88.2	85.5	27	50.0	1	4	90	0.00	30.119 
13:45	88.4	88.4	85.7	27	50.1	1	4	112	0.00	30.110 
13:50	88.8	88.8	85.8	25	48.4	2	6	112	0.00	30.110 
13:55	88.8	88.8	85.8	25	48.4	2	5	90	0.00	30.110 
14:00	88.8	88.8	85.6	24	47.3	2	4	112	0.00	30.107 
14:05	88.8	88.8	85.9	26	49.5	0	4	112	0.00	30.107 
14:10	89.3	89.3	86.4	26	49.9	1	7	90	0.00	30.107 
14:15	89.3	89.3	86.3	25	48.8	2	9	90	0.00	30.105 
14:20	88.4	88.4	85.4	25	48.1	2	5	112	0.00	30.105 
14:25	88.4	88.4	85.7	27	50.1	2	5	90	0.00	30.105 
14:30	88.8	88.8	85.8	25	48.4	2	4	90	0.00	30.097 
14:35	88.8	88.8	86.1	27	50.5	1	4	112	0.00	30.097 
14:40	88.8	88.8	86.1	27	50.5	3	6	90	0.00	30.097 
14:45	89.0	89.0	86.1	26	49.6	1	4	90	0.00	30.092 
14:50	89.3	89.3	86.6	27	50.9	2	5	90	0.00	30.092 
14:55	89.3	89.3	86.4	26	49.9	1	3	90	0.00	30.092 
15:00	89.5	89.5	86.8	27	51.1	1	3	112	0.00	30.083 
15:05	89.5	89.5	86.8	27	51.1	2	7	90	0.00	30.083 
15:10	89.5	89.5	86.6	26	50.0	1	4	90	0.00	30.083 
15:15	89.3	89.3	86.4	26	49.9	3	7	112	0.00	30.081 
15:20	89.0	89.0	86.1	26	49.6	2	6	112	0.00	30.081 
15:25	88.6	88.6	85.7	26	49.3	2	6	90	0.00	30.081 
15:30	88.6	88.6	85.7	26	49.3	2	6	90	0.00	30.077 
15:35	89.0	89.0	86.3	27	50.6	1	5	225	0.00	30.077 
15:40	89.3	89.3	86.3	25	48.8	1	4	90	0.00	30.077 
15:45	89.3	89.3	86.3	25	48.8	1	4	112	0.00	30.076 
15:50	89.3	89.3	86.3	25	48.8	1	3	90	0.00	30.076 
15:55	89.3	89.3	86.3	25	48.8	1	2	90	0.00	30.076 
16:00	89.3	89.3	86.3	25	48.8	1	5	112	0.00	30.074 
16:05	89.0	89.0	86.0	25	48.6	2	5	112	0.00	30.074 
16:10	88.8	88.8	85.8	25	48.4	1	4	112	0.00	30.074 
16:15	88.6	88.6	85.6	25	48.2	1	3	135	0.00	30.071 
16:20	88.6	88.6	85.6	25	48.2	2	9	90	0.00	30.071 
16:25	88.4	88.4	85.5	26	49.1	2	6	90	0.00	30.071 
16:30	88.4	88.4	85.5	26	49.1	1	4	68	0.00	30.065 
16:35	88.2	88.2	85.3	26	48.9	2	7	112	0.00	30.065 
16:40	88.0	88.0	85.1	26	48.8	2	5	112	0.00	30.065 
16:45	87.8	87.8	84.8	25	47.6	1	3	90	0.00	30.066 
16:50	87.8	87.8	85.1	27	49.6	1	4	135	0.00	30.066 
16:55	87.6	87.6	84.7	26	48.4	1	4	90	0.00	30.066 
17:00	87.4	87.4	84.6	26	48.3	2	5	90	0.00	30.065 
17:05	87.2	87.2	84.4	26	48.1	1	5	90	0.00	30.065 
17:10	87.0	87.0	84.3	27	48.9	1	5	90	0.00	30.065 
17:15	86.7	86.7	83.9	26	47.7	1	4	112	0.00	30.063 
17:20	86.5	86.5	83.7	26	47.5	1	5	90	0.00	30.063 
17:25	86.3	86.3	83.6	26	47.3	1	3	90	0.00	30.063 
17:30	86.1	86.1	83.5	27	48.2	1	3	112	0.00	30.063 
17:35	85.9	85.9	83.3	27	48.0	1	2	135	0.00	30.063 
17:40	85.7	85.7	83.1	27	47.8	1	3	112	0.00	30.063 
17:45	85.5	85.5	83.1	28	48.6	1	3	112	0.00	30.063 
17:50	85.3	85.3	82.8	27	47.5	1	5	112	0.00	30.063 
17:55	85.1	85.1	82.6	27	47.3	1	4	112	0.00	30.063 
18:00	84.9	84.9	82.6	28	48.1	0	2	135	0.00	30.064 
18:05	84.7	84.7	82.4	28	48.0	1	3	135	0.00	30.064 
18:10	84.5	84.5	82.3	29	48.7	0	2	135	0.00	30.064 
18:15	84.3	84.3	82.2	29	48.5	0	1	135	0.00	30.058 
18:20	84.0	84.0	82.0	30	49.2	0	1	135	0.00	30.058 
18:25	83.8	83.8	81.9	31	49.9	0	2	135	0.00	30.058 
18:30	83.4	83.4	81.6	31	49.6	0	2	135	0.00	30.057 
18:35	83.0	83.0	81.3	31	49.2	0	1	135	0.00	30.057 
18:40	82.6	82.6	81.1	32	49.7	0	1	135	0.00	30.057 
18:45	82.2	82.2	80.8	32	49.4	0	1	135	0.00	30.058 
18:50	81.8	81.8	80.5	32	49.0	0	1	135	0.00	30.058 
18:55	81.4	81.4	80.3	33	49.5	0	0	---	0.00	30.058 
19:00	81.1	81.1	80.1	33	49.2	0	0	---	0.00	30.057 
19:05	80.5	80.5	79.8	34	49.5	0	0	---	0.00	30.057 
19:10	79.8	79.8	79.4	35	49.7	0	0	---	0.00	30.057 
19:15	79.2	79.2	79.1	36	49.9	0	0	---	0.00	30.055 
19:20	78.5	78.5	78.9	38	50.8	0	0	---	0.00	30.055 
19:25	77.7	77.7	78.5	39	50.7	0	0	---	0.00	30.055 
19:30	77.0	77.0	78.2	40	50.8	0	0	---	0.00	30.055 
19:35	76.3	76.3	77.9	40	50.2	0	0	---	0.00	30.055 
19:40	75.8	75.8	77.8	42	51.1	0	0	---	0.00	30.055 
19:45	75.3	75.3	77.7	43	51.2	0	0	---	0.00	30.061 
19:50	74.7	74.7	74.7	45	51.9	0	0	---	0.00	30.061 
19:55	74.2	74.2	74.2	46	52.1	0	0	---	0.00	30.061 
20:00	73.7	73.7	73.7	48	52.8	0	0	---	0.00	30.065 
20:05	73.2	73.2	73.2	49	52.9	0	0	---	0.00	30.065 
20:10	72.7	72.7	72.7	50	53.0	0	0	---	0.00	30.065 
20:15	72.1	72.1	72.1	51	53.0	0	0	---	0.00	30.069 
20:20	71.6	71.6	71.6	52	53.0	0	0	---	0.00	30.069 
20:25	71.3	71.3	71.3	54	53.8	0	0	---	0.00	30.069 
20:30	70.8	70.8	70.8	53	52.8	0	0	---	0.00	30.076 
20:35	70.3	70.3	70.3	53	52.3	0	0	---	0.00	30.076 
20:40	69.9	69.9	69.9	54	52.5	0	0	---	0.00	30.076 
20:45	69.6	69.6	69.6	54	52.2	0	0	---	0.00	30.082 
20:50	69.3	69.3	69.3	56	52.9	0	0	---	0.00	30.082 
20:55	68.9	68.9	68.9	56	52.5	0	0	---	0.00	30.082 
21:00	68.6	68.6	68.6	57	52.7	0	0	---	0.00	30.087 
21:05	68.4	68.4	68.4	59	53.5	0	1	135	0.00	30.087 
21:10	68.1	68.1	68.1	59	53.2	0	0	---	0.00	30.087 
21:15	68.3	68.3	68.3	54	51.0	0	3	135	0.00	30.091 
21:20	69.1	69.1	69.1	50	49.7	0	2	135	0.00	30.091 
21:25	69.9	69.9	69.9	50	50.4	0	1	135	0.00	30.091 
21:30	70.1	70.1	70.1	50	50.6	0	1	135	0.00	30.096 
21:35	70.1	70.1	70.1	50	50.6	0	1	135	0.00	30.096 
21:40	70.1	70.1	70.1	50	50.6	0	1	135	0.00	30.096 
21:45	69.9	69.9	69.9	51	50.9	0	1	135	0.00	30.103 
21:50	69.8	69.8	69.8	51	50.8	0	1	135	0.00	30.103 
21:55	69.6	69.6	69.6	51	50.7	0	1	135	0.00	30.103 
22:00	69.6	69.6	69.6	51	50.7	0	3	135	0.00	30.099 
22:05	69.6	69.6	69.6	51	50.7	0	2	135	0.00	30.099 
22:10	69.6	69.6	69.6	52	51.2	0	1	135	0.00	30.099 
22:15	69.1	69.1	69.1	52	50.7	0	0	---	0.00	30.100 
22:20	68.8	68.8	68.8	53	51.0	0	1	135	0.00	30.100 
22:25	68.6	68.6	68.6	53	50.8	0	1	135	0.00	30.100 
22:30	68.3	68.3	68.3	54	51.0	0	0	---	0.00	30.104 
22:35	68.1	68.1	68.1	54	50.8	0	1	135	0.00	30.104 
22:40	67.8	67.8	67.8	54	50.5	0	0	---	0.00	30.104 
22:45	67.4	67.4	67.4	55	50.7	0	0	---	0.00	30.107 
22:50	67.1	67.1	67.1	56	50.9	0	0	---	0.00	30.107 
22:55	66.8	66.8	66.8	57	51.1	0	1	135	0.00	30.107 
23:00	66.6	66.6	66.6	57	50.9	0	0	---	0.00	30.106 
23:05	66.4	66.4	66.4	58	51.2	0	1	135	0.00	30.106 
23:10	66.3	66.3	66.3	58	51.1	0	0	---	0.00	30.106 
23:15	66.1	66.1	66.1	58	50.9	0	0	---	0.00	30.103 
23:20	66.0	66.0	66.0	58	50.8	0	0	---	0.00	30.103 
23:25	65.6	65.6	65.6	59	50.9	0	0	---	0.00	30.103 
23:30	65.5	65.5	65.5	60	51.2	0	0	---	0.00	30.105 
23:35	65.2	65.2	65.2	60	51.0	0	0	---	0.00	30.105 
23:40	64.8	64.8	64.8	61	51.0	0	0	---	0.00	30.105 
23:45	64.5	64.5	64.5	62	51.2	0	0	---	0.00	30.108 
23:50	64.2	64.2	64.2	62	50.9	0	0	---	0.00	30.108 
23:55	63.9	63.9	63.9	63	51.1	0	0	---	0.00	30.108 

CoCoRaHS
IN-AL-39
A2 Web Hosting
Creative Commons License
GoDaddy
Look for:

loaded 2017-10-19 12:25:07 • last modified 2010-11-18 10:43:29
Privacy PolicyDisclaimer
• wx.awcolley.com is powered by PmWiki v.2002016 •
• all content (unless otherwise noted) © 2017 A W Colley